^^
Meteo Knjazevac Station Historical Data
Daily Summary for July 28, 2021 Units:  English    Metric   Both
Daily Weekly Monthly Yearly Custom
  High: Low: Average:
Temperature: 31.1 °F 30 °F 30.6 °F
Dew Point: 27.4 °F 26.3 °F 26.8 °F
Humidity: 86% 84% 86%
Wind Speed: 7mph 0mph 4mph
Wind Gust: 14mph - -
Wind- - West
Pressure: 29.96 in 29.94 in -
Precipitation: 0.00 in    
Historical Graphs
 
 
Tabular Data for July 28, 2021
Time Temperature Dew Point Pressure Wind Wind Speed Wind Gust Humidity Rainfall Rate (Hourly) solar Conditions
00:00 30.6 °F 26.6 °F 29.94 in West 5 mph 7 mph 85% 0.00 in 0 W/m2
00:10 30.6 °F 26.6 °F 29.94 in West 5 mph 11 mph 85% 0.00 in 0 W/m2
00:20 30.6 °F 26.9 °F 29.94 in West 5 mph 10 mph 86% 0.00 in 0 W/m2
00:30 30.4 °F 26.7 °F 29.95 in West 3 mph 8 mph 86% 0.00 in 0 W/m2
00:40 30.4 °F 26.7 °F 29.94 in West 1 mph 12 mph 86% 0.00 in 0 W/m2
00:50 30.4 °F 26.7 °F 29.95 in West 2 mph 7 mph 86% 0.00 in 0 W/m2
01:00 30.2 °F 26.5 °F 29.95 in NNW 6 mph 10 mph 86% 0.00 in 0 W/m2
01:10 30.6 °F 26.6 °F 29.95 in West 3 mph 9 mph 85% 0.00 in 0 W/m2
01:20 30.4 °F 26.4 °F 29.95 in West 6 mph 8 mph 85% 0.00 in 0 W/m2
01:30 30.6 °F 26.6 °F 29.95 in West 6 mph 9 mph 85% 0.00 in 0 W/m2
01:40 30.7 °F 26.5 °F 29.96 in West 3 mph 11 mph 84% 0.00 in 0 W/m2
01:50 30.7 °F 26.8 °F 29.96 in West 3 mph 7 mph 85% 0.00 in 0 W/m2
02:00 30.7 °F 26.8 °F 29.96 in West 3 mph 6 mph 85% 0.00 in 0 W/m2
02:10 30.6 °F 26.6 °F 29.95 in West 2 mph 5 mph 85% 0.00 in 0 W/m2
02:20 30.7 °F 26.8 °F 29.95 in WNW 2 mph 8 mph 85% 0.00 in 0 W/m2
02:30 30.6 °F 26.6 °F 29.95 in West 1 mph 7 mph 85% 0.00 in 0 W/m2
02:40 30.6 °F 26.9 °F 29.95 in WNW 1 mph 7 mph 86% 0.00 in 0 W/m2
02:50 30.7 °F 27 °F 29.95 in NW 6 mph 8 mph 86% 0.00 in 0 W/m2
03:00 30.7 °F 27 °F 29.95 in Calm   8 mph 86% 0.00 in 0 W/m2
03:10 30.6 °F 26.9 °F 29.95 in Calm   5 mph 86% 0.00 in 0 W/m2
03:20 30.6 °F 26.9 °F 29.95 in West 5 mph 9 mph 86% 0.00 in 0 W/m2
03:30 30.9 °F 27.2 °F 29.95 in WSW 5 mph 10 mph 86% 0.00 in 0 W/m2
03:40 31.1 °F 27.4 °F 29.95 in WSW 5 mph 13 mph 86% 0.00 in 0 W/m2
03:50 30.9 °F 27.2 °F 29.95 in WSW 6 mph 14 mph 86% 0.00 in 0 W/m2
04:00 30.9 °F 27.2 °F 29.95 in West 3 mph 7 mph 86% 0.00 in 0 W/m2
04:10 30.6 °F 26.9 °F 29.95 in WSW 5 mph 8 mph 86% 0.00 in 0 W/m2
04:20 30.4 °F 26.7 °F 29.95 in WSW 6 mph 10 mph 86% 0.00 in 0 W/m2
04:30 30.2 °F 26.5 °F 29.95 in WSW 7 mph 12 mph 86% 0.00 in 0 W/m2
04:40 30.2 °F 26.5 °F 29.95 in WSW 7 mph 12 mph 86% 0.00 in 0 W/m2
04:50 30 °F 26.3 °F 29.95 in WSW 7 mph 12 mph 86% 0.00 in 0 W/m2
Knjazevac, Serbia
Compliments of Weather Underground - 2 mb